Time;durP1;ratioP1;P1;durP2;ratioP2;P2;SDS_P1;SDS_P2;PMS_P1;PMS_P2;Temp;Humidity;BMP_temperature;BMP_pressure;BME280_temperature;BME280_humidity;BME280_pressure;Samples;Min_cycle;Max_cycle;Signal;HPM_P1;HPM_P2
2022/09/19 00:01:35;;;;;;;11.93;0.57;;;10.00;99.90;;;;;;5098256;28;20477;-83
2022/09/19 00:04:16;;;;;;;11.90;0.52;;;9.90;99.90;;;;;;5064797;28;20040;-78
2022/09/19 00:06:44;;;;;;;15.07;1.05;;;10.00;99.90;;;;;;5061791;28;20511;-81
2022/09/19 00:09:13;;;;;;;7.78;0.88;;;10.00;99.90;;;;;;5063194;28;20527;-81
2022/09/19 00:11:40;;;;;;;12.70;0.60;;;10.00;99.90;;;;;;5047806;28;20459;-78
2022/09/19 00:14:09;;;;;;;9.20;0.50;;;10.00;99.90;;;;;;5062712;28;20029;-79
2022/09/19 00:16:38;;;;;;;9.52;0.50;;;10.00;99.90;;;;;;5064109;28;20077;-78
2022/09/19 00:19:06;;;;;;;12.00;0.70;;;10.00;99.90;;;;;;5063230;28;20028;-78
2022/09/19 00:21:38;;;;;;;5.65;0.40;;;10.00;99.90;;;;;;5074569;28;20530;-83
2022/09/19 00:26:50;;;;;;;8.98;0.60;;;10.00;99.90;;;;;;5064388;28;20442;-81
2022/09/19 00:29:17;;;;;;;14.05;0.85;;;10.00;99.90;;;;;;5061333;28;20032;-78
2022/09/19 00:31:44;;;;;;;8.07;0.40;;;10.00;99.90;;;;;;5045492;28;20388;-80
2022/09/19 00:34:15;;;;;;;9.13;0.60;;;10.00;99.90;;;;;;5061880;28;20498;-78
2022/09/19 00:36:41;;;;;;;10.25;0.50;;;10.00;99.90;;;;;;5063068;28;20024;-79
2022/09/19 00:39:09;;;;;;;8.50;0.45;;;9.90;99.90;;;;;;5062685;28;20485;-77
2022/09/19 00:41:36;;;;;;;7.80;0.50;;;9.90;99.90;;;;;;5065084;28;20028;-80
2022/09/19 00:44:22;;;;;;;10.63;0.60;;;9.90;99.90;;;;;;5063483;28;20478;-77
2022/09/19 00:47:04;;;;;;;12.35;1.15;;;9.90;99.90;;;;;;5050673;28;20485;-82
2022/09/19 00:49:33;;;;;;;11.98;0.50;;;10.00;99.90;;;;;;5063223;28;20055;-82
2022/09/19 00:52:04;;;;;;;8.18;0.50;;;10.00;99.90;;;;;;5096710;28;20419;-80
2022/09/19 00:54:34;;;;;;;13.77;0.55;;;10.00;99.90;;;;;;5094018;28;20047;-78
2022/09/19 00:57:01;;;;;;;;;;;10.10;99.90;;;;;;5063625;28;20300;-81
2022/09/19 00:59:30;;;;;;;6.80;0.45;;;9.90;99.90;;;;;;5065625;28;19908;-80
2022/09/19 01:01:56;;;;;;;10.00;0.50;;;10.00;99.90;;;;;;5063794;28;20486;-81
2022/09/19 01:04:25;;;;;;;8.25;0.50;;;10.10;99.90;;;;;;5062610;28;20427;-81
2022/09/19 01:07:06;;;;;;;9.20;0.95;;;10.10;99.90;;;;;;5062728;28;20493;-79
2022/09/19 01:09:52;;;;;;;9.43;0.40;;;10.10;99.90;;;;;;5053715;28;20030;-78
2022/09/19 01:12:52;;;;;;;9.75;0.50;;;10.10;99.90;;;;;;4987436;28;20485;-78
2022/09/19 01:15:38;;;;;;;7.78;0.70;;;10.20;99.90;;;;;;5004750;28;20022;-80
2022/09/19 01:18:06;;;;;;;10.40;0.68;;;10.10;99.90;;;;;;5022329;28;20143;-80
2022/09/19 01:20:42;;;;;;;13.27;0.80;;;10.10;99.90;;;;;;5004887;28;20037;-79
2022/09/19 01:23:16;;;;;;;8.38;0.70;;;10.20;99.90;;;;;;5004098;28;20044;-78
2022/09/19 01:25:46;;;;;;;13.15;0.80;;;10.30;99.90;;;;;;5023679;28;20021;-80
2022/09/19 01:28:24;;;;;;;7.13;0.50;;;10.40;99.90;;;;;;5005213;28;20037;-78
2022/09/19 01:31:27;;;;;;;12.15;1.17;;;10.40;99.90;;;;;;5004928;28;20076;-80
2022/09/19 01:34:15;;;;;;;10.63;0.90;;;10.30;99.90;;;;;;5001607;28;20533;-81
2022/09/19 01:37:12;;;;;;;10.40;0.82;;;10.20;99.90;;;;;;5023017;28;20029;-77
2022/09/19 01:39:43;;;;;;;6.45;0.90;;;10.20;99.90;;;;;;5038102;28;20037;-78
2022/09/19 01:42:13;;;;;;;;;;;10.20;99.90;;;;;;5006602;28;20025;-78
2022/09/19 01:44:39;;;;;;;13.05;0.65;;;10.20;99.90;;;;;;5005488;28;19963;-78
2022/09/19 01:47:33;;;;;;;8.73;0.43;;;10.20;99.90;;;;;;4989880;28;20046;-81
2022/09/19 01:50:25;;;;;;;10.82;0.60;;;10.20;99.90;;;;;;5006859;28;20033;-80
2022/09/19 01:53:31;;;;;;;7.20;0.43;;;10.20;99.90;;;;;;5021875;28;20026;-77
2022/09/19 01:56:33;;;;;;;9.38;0.60;;;10.20;99.90;;;;;;4996986;28;20452;-81
2022/09/19 01:59:13;;;;;;;10.90;0.50;;;10.20;99.90;;;;;;5003726;28;20030;-79
2022/09/19 02:02:01;;;;;;;13.88;0.77;;;10.20;99.90;;;;;;5004921;28;20030;-80
2022/09/19 02:04:41;;;;;;;12.90;1.08;;;10.20;99.90;;;;;;5006620;28;20521;-78
2022/09/19 02:07:23;;;;;;;11.68;0.73;;;10.20;99.90;;;;;;4987565;28;20029;-77
2022/09/19 02:10:07;;;;;;;9.38;0.50;;;10.20;99.90;;;;;;5005542;28;20035;-78
2022/09/19 02:12:38;;;;;;;5.45;0.40;;;10.20;99.90;;;;;;5003943;28;20029;-80
2022/09/19 02:15:12;;;;;;;8.68;0.65;;;10.10;99.90;;;;;;5039057;28;20037;-80
2022/09/19 02:17:55;;;;;;;12.67;1.30;;;10.10;99.90;;;;;;5003471;28;20048;-78
2022/09/19 02:20:41;;;;;;;5.18;0.40;;;10.10;99.90;;;;;;5007505;28;20355;-80
2022/09/19 02:23:18;;;;;;;8.00;0.40;;;10.10;99.90;;;;;;5038412;28;20362;-80
2022/09/19 02:25:46;;;;;;;7.50;0.40;;;10.10;99.90;;;;;;5004512;28;20084;-80
2022/09/19 02:28:18;;;;;;;7.65;0.40;;;10.00;99.90;;;;;;4995066;28;20926;-80
2022/09/19 02:30:44;;;;;;;8.35;0.68;;;10.10;99.90;;;;;;5024966;28;20121;-77
2022/09/19 02:33:11;;;;;;;11.32;0.50;;;10.20;99.90;;;;;;5041075;28;20029;-78
2022/09/19 02:35:47;;;;;;;8.50;0.40;;;10.30;99.90;;;;;;5025339;28;20421;-78
2022/09/19 02:38:22;;;;;;;8.68;0.55;;;10.30;99.90;;;;;;5007945;28;20456;-80
2022/09/19 02:41:08;;;;;;;11.25;0.93;;;10.30;99.90;;;;;;5009596;28;20116;-81
2022/09/19 02:43:53;;;;;;;9.52;0.73;;;10.30;99.90;;;;;;5007246;28;20037;-79
2022/09/19 02:46:31;;;;;;;9.95;0.50;;;10.30;99.90;;;;;;5040393;28;20030;-80
2022/09/19 02:49:09;;;;;;;11.30;0.88;;;10.30;99.90;;;;;;5025876;28;20503;-81
2022/09/19 02:51:45;;;;;;;10.05;0.70;;;10.20;99.90;;;;;;5008126;28;20470;-81
2022/09/19 02:54:19;;;;;;;9.60;1.10;;;10.30;99.90;;;;;;5006382;28;20033;-80
2022/09/19 02:56:47;;;;;;;5.72;0.77;;;10.30;99.90;;;;;;5007514;28;20052;-78
2022/09/19 02:59:28;;;;;;;10.32;0.50;;;10.20;99.90;;;;;;5007369;28;20485;-79
2022/09/19 03:02:03;;;;;;;9.23;0.40;;;10.20;99.90;;;;;;5007335;28;20061;-78
2022/09/19 03:04:36;;;;;;;13.40;0.85;;;10.10;99.90;;;;;;5022551;28;20551;-78
2022/09/19 03:07:13;;;;;;;11.20;0.40;;;10.10;99.90;;;;;;5041867;28;20191;-79
2022/09/19 03:10:08;;;;;;;8.23;0.40;;;10.10;99.90;;;;;;5007578;28;20386;-77
2022/09/19 03:13:00;;;;;;;6.32;0.47;;;10.10;99.90;;;;;;5007248;28;20544;-78
2022/09/19 03:15:40;;;;;;;8.00;0.52;;;10.20;99.90;;;;;;5024744;28;20025;-78
2022/09/19 03:18:13;;;;;;;10.85;0.60;;;10.20;99.90;;;;;;5006712;28;20079;-78
2022/09/19 03:20:44;;;;;;;12.75;0.60;;;10.20;99.90;;;;;;5025544;28;20463;-78
2022/09/19 03:23:11;;;;;;;13.15;0.55;;;10.10;99.90;;;;;;5008547;28;20478;-77
2022/09/19 03:25:38;;;;;;;7.85;0.40;;;10.10;99.90;;;;;;5006893;28;20117;-80
2022/09/19 03:28:04;;;;;;;9.27;0.80;;;10.10;99.90;;;;;;5003393;28;20116;-79
2022/09/19 03:30:31;;;;;;;4.53;0.65;;;10.10;99.90;;;;;;5023750;28;20141;-78
2022/09/19 03:32:58;;;;;;;10.35;0.60;;;10.10;99.90;;;;;;5006835;28;20058;-79
2022/09/19 03:35:24;;;;;;;7.38;0.65;;;10.10;99.90;;;;;;5003335;28;20024;-78
2022/09/19 03:37:51;;;;;;;7.30;0.30;;;10.10;99.90;;;;;;5006560;28;20042;-80
2022/09/19 03:40:22;;;;;;;13.68;0.80;;;10.10;99.90;;;;;;5006396;28;20021;-79
2022/09/19 03:42:52;;;;;;;7.10;0.83;;;10.20;99.90;;;;;;4999431;28;20044;-79
2022/09/19 03:45:19;;;;;;;4.93;0.38;;;10.10;99.90;;;;;;4996425;28;20048;-80
2022/09/19 03:47:46;;;;;;;6.78;0.40;;;10.10;99.90;;;;;;5024123;28;20029;-79
2022/09/19 03:50:12;;;;;;;12.43;0.98;;;10.10;99.90;;;;;;5018863;28;20535;-79
2022/09/19 03:52:48;;;;;;;6.93;0.40;;;10.10;99.90;;;;;;5002617;28;20390;-79
2022/09/19 03:55:17;;;;;;;7.70;0.57;;;10.10;99.90;;;;;;5004868;28;20058;-78
2022/09/19 03:57:44;;;;;;;10.75;0.73;;;10.00;99.90;;;;;;5040705;28;20486;-78
2022/09/19 04:00:10;;;;;;;4.82;0.40;;;10.10;99.90;;;;;;4989876;28;20121;-78
2022/09/19 04:02:42;;;;;;;11.75;0.45;;;10.10;99.90;;;;;;5025480;28;20041;-80
2022/09/19 04:05:09;;;;;;;8.15;0.40;;;10.10;99.90;;;;;;5022508;28;20033;-79
2022/09/19 04:07:37;;;;;;;6.25;0.30;;;10.10;99.90;;;;;;5006424;28;20042;-80
2022/09/19 04:10:05;;;;;;;7.60;0.40;;;10.00;99.90;;;;;;5039151;28;20041;-80
2022/09/19 04:12:33;;;;;;;9.55;0.50;;;10.10;99.90;;;;;;5006343;28;20029;-80
2022/09/19 04:15:00;;;;;;;7.90;0.60;;;10.20;99.90;;;;;;5024879;28;20025;-77
2022/09/19 04:17:27;;;;;;;9.35;0.40;;;10.10;99.90;;;;;;5004937;28;20379;-80
2022/09/19 04:19:57;;;;;;;11.10;0.50;;;10.10;99.90;;;;;;5037921;28;20029;-80
2022/09/19 04:22:36;;;;;;;7.70;0.60;;;10.10;99.90;;;;;;5023524;28;20449;-81
2022/09/19 04:25:22;;;;;;;6.07;0.40;;;10.00;99.90;;;;;;5023088;28;20033;-79
2022/09/19 04:28:03;;;;;;;11.85;0.85;;;10.10;99.90;;;;;;5023420;28;20112;-79
2022/09/19 04:30:34;;;;;;;7.20;0.57;;;10.20;99.90;;;;;;4993855;28;20053;-81
2022/09/19 04:33:04;;;;;;;7.22;0.60;;;10.10;99.90;;;;;;5004824;28;20029;-78
2022/09/19 04:35:35;;;;;;;4.18;0.30;;;10.20;99.90;;;;;;5021700;28;20029;-80
2022/09/19 04:38:08;;;;;;;9.05;0.63;;;10.20;99.90;;;;;;5003449;28;20046;-78
2022/09/19 04:40:38;;;;;;;11.20;1.05;;;10.10;99.90;;;;;;5006858;28;20033;-80
2022/09/19 04:43:05;;;;;;;;;;;10.20;99.90;;;;;;4998560;28;20030;-79
2022/09/19 04:45:31;;;;;;;7.38;0.40;;;10.20;99.90;;;;;;5022789;28;21857;-79
2022/09/19 04:48:05;;;;;;;8.30;0.40;;;10.20;99.90;;;;;;5037611;28;20049;-78
2022/09/19 04:50:35;;;;;;;5.13;0.30;;;10.20;99.90;;;;;;5004012;28;20030;-80
2022/09/19 04:53:01;;;;;;;5.18;0.50;;;10.20;99.90;;;;;;5003401;28;20474;-79
2022/09/19 04:55:27;;;;;;;7.70;0.50;;;10.20;99.90;;;;;;5004513;28;20534;-78
2022/09/19 04:58:00;;;;;;;6.50;0.57;;;10.30;99.90;;;;;;4993944;28;20037;-79
2022/09/19 05:00:39;;;;;;;5.57;0.40;;;10.30;99.90;;;;;;4997045;28;20033;-79
2022/09/19 05:03:12;;;;;;;11.50;1.92;;;10.30;99.90;;;;;;4988293;28;20037;-79
2022/09/19 05:05:50;;;;;;;7.30;0.73;;;10.20;99.90;;;;;;5019413;28;20177;-78
2022/09/19 05:08:25;;;;;;;5.53;0.30;;;10.10;99.90;;;;;;5037371;28;20033;-78
2022/09/19 05:10:54;;;;;;;7.35;0.40;;;10.20;99.90;;;;;;5004948;28;20049;-77
2022/09/19 05:13:27;;;;;;;8.80;0.50;;;10.30;99.90;;;;;;5003897;28;20108;-79
2022/09/19 05:15:54;;;;;;;9.88;0.50;;;10.40;99.90;;;;;;5006990;28;20028;-80
2022/09/19 05:18:21;;;;;;;6.30;0.50;;;10.50;99.90;;;;;;5001503;28;20809;-79
2022/09/19 05:20:52;;;;;;;8.05;0.40;;;10.50;99.90;;;;;;5006650;28;20022;-81
2022/09/19 05:23:17;;;;;;;5.03;0.43;;;10.70;99.90;;;;;;5023070;28;20370;-78
2022/09/19 05:25:43;;;;;;;7.32;0.40;;;10.60;99.90;;;;;;5004973;28;20281;-80
2022/09/19 05:28:10;;;;;;;6.80;0.40;;;10.60;99.90;;;;;;5005723;28;20029;-78
2022/09/19 05:30:39;;;;;;;6.32;0.50;;;10.60;99.90;;;;;;5002771;28;20117;-78
2022/09/19 05:33:06;;;;;;;7.32;0.60;;;10.60;99.90;;;;;;4987661;28;20113;-79
2022/09/19 05:35:40;;;;;;;7.78;0.63;;;10.70;99.90;;;;;;5005623;28;20109;-79
2022/09/19 05:38:17;;;;;;;9.10;0.85;;;10.70;99.90;;;;;;5034619;28;20119;-79
2022/09/19 05:40:57;;;;;;;6.18;0.50;;;10.70;99.90;;;;;;5004319;28;20065;-79
2022/09/19 05:43:39;;;;;;;7.95;0.60;;;10.80;99.90;;;;;;5023957;28;20132;-79
2022/09/19 05:46:05;;;;;;;9.23;0.60;;;10.90;99.90;;;;;;5003818;28;20507;-79
2022/09/19 05:48:31;;;;;;;12.65;0.80;;;10.80;99.90;;;;;;5004596;28;20074;-81
2022/09/19 05:50:58;;;;;;;4.82;0.40;;;11.00;99.90;;;;;;5020760;28;20022;-79
2022/09/19 05:56:23;;;;;;;10.85;0.68;;;11.10;99.90;;;;;;5020914;28;20037;-80
2022/09/19 05:58:56;;;;;;;6.03;0.43;;;11.20;99.90;;;;;;5023657;28;20030;-79
2022/09/19 06:01:24;;;;;;;4.55;1.00;;;11.20;99.90;;;;;;4997020;28;20033;-79
2022/09/19 06:03:50;;;;;;;7.50;0.45;;;11.20;99.90;;;;;;5043516;28;20029;-79
2022/09/19 06:06:21;;;;;;;6.03;0.45;;;11.30;99.90;;;;;;5008091;28;20025;-79
2022/09/19 06:08:56;;;;;;;6.00;0.85;;;11.30;99.90;;;;;;5024878;28;20393;-81
2022/09/19 06:11:21;;;;;;;4.78;0.65;;;11.30;99.90;;;;;;5021052;28;20076;-79
2022/09/19 06:16:32;;;;;;;7.43;0.50;;;11.40;99.90;;;;;;5007395;28;20482;-79
2022/09/19 06:19:33;;;;;;;5.82;0.30;;;11.40;99.90;;;;;;4927194;29;20044;-81
2022/09/19 06:22:12;;;;;;;9.55;0.50;;;11.50;99.90;;;;;;4929178;29;20046;-79
2022/09/19 06:24:40;;;;;;;5.47;0.38;;;11.60;99.90;;;;;;4911128;29;20135;-79
2022/09/19 06:27:07;;;;;;;8.43;0.47;;;11.60;99.90;;;;;;4909879;29;20073;-79
2022/09/19 06:29:34;;;;;;;6.50;0.43;;;11.70;99.90;;;;;;4924377;29;20560;-78
2022/09/19 06:32:26;;;;;;;6.00;0.95;;;11.70;99.90;;;;;;4905053;29;20489;-79
2022/09/19 06:35:28;;;;;;;9.32;0.45;;;11.70;99.90;;;;;;4920359;29;20112;-79
2022/09/19 06:38:07;;;;;;;6.28;0.50;;;12.00;99.90;;;;;;4910622;29;20080;-78
2022/09/19 06:40:38;;;;;;;6.13;0.30;;;12.10;99.90;;;;;;4926856;29;20095;-79
2022/09/19 06:43:18;;;;;;;6.28;1.25;;;12.10;99.90;;;;;;4907869;29;20043;-80
2022/09/19 06:46:02;;;;;;;9.48;1.17;;;12.20;99.90;;;;;;4925850;29;20027;-80
2022/09/19 06:48:40;;;;;;;6.80;0.40;;;12.20;99.90;;;;;;4909740;29;20043;-79
2022/09/19 06:51:29;;;;;;;7.20;0.30;;;12.20;99.90;;;;;;4913289;29;20409;-78
2022/09/19 06:53:54;;;;;;;5.70;0.50;;;12.20;99.90;;;;;;4987577;28;20039;-78
2022/09/19 06:56:20;;;;;;;7.65;0.40;;;12.20;99.90;;;;;;4989870;28;20026;-78
2022/09/19 06:58:46;;;;;;;8.25;0.50;;;12.20;99.90;;;;;;5006807;28;20072;-79
2022/09/19 07:01:13;;;;;;;8.70;0.75;;;12.20;99.90;;;;;;5025823;28;20021;-78
2022/09/19 07:03:41;;;;;;;7.15;0.40;;;12.20;99.90;;;;;;5023197;28;20033;-78
2022/09/19 07:06:07;;;;;;;6.05;0.40;;;12.20;99.90;;;;;;5022363;28;20034;-79
2022/09/19 07:08:37;;;;;;;5.15;0.30;;;12.20;99.90;;;;;;5002099;28;20030;-79
2022/09/19 07:11:04;;;;;;;8.07;0.55;;;12.20;99.90;;;;;;5003217;28;20049;-78
2022/09/19 07:13:33;;;;;;;5.10;0.80;;;12.30;99.90;;;;;;5020516;28;20073;-79
2022/09/19 07:16:03;;;;;;;6.00;0.40;;;12.50;99.90;;;;;;5011745;28;20023;-81
2022/09/19 07:18:35;;;;;;;10.00;0.47;;;12.50;99.90;;;;;;5002567;28;20169;-81
2022/09/19 07:21:13;;;;;;;7.80;0.45;;;12.50;99.90;;;;;;5003364;28;20372;-78
2022/09/19 07:23:47;;;;;;;11.27;0.40;;;12.60;99.90;;;;;;4992917;28;20121;-81
2022/09/19 07:26:32;;;;;;;4.10;0.30;;;12.60;99.90;;;;;;5003271;28;20033;-79
2022/09/19 07:28:58;;;;;;;8.52;0.40;;;12.60;99.90;;;;;;5003764;28;20060;-79
2022/09/19 07:31:26;;;;;;;5.28;0.63;;;12.60;99.90;;;;;;4985704;28;20499;-78
2022/09/19 07:33:53;;;;;;;6.38;0.55;;;12.70;99.90;;;;;;5002544;28;20574;-78
2022/09/19 07:36:21;;;;;;;7.88;0.77;;;12.60;99.90;;;;;;4988350;28;20026;-79
2022/09/19 07:38:51;;;;;;;6.50;0.40;;;12.70;99.90;;;;;;4997143;28;20085;-79
2022/09/19 07:41:37;;;;;;;5.00;0.30;;;12.80;99.90;;;;;;5004656;28;20141;-79
2022/09/19 07:44:31;;;;;;;8.63;0.50;;;12.80;99.90;;;;;;4959852;28;20062;-80
2022/09/19 07:50:03;;;;;;;5.22;0.30;;;12.80;99.90;;;;;;4949345;28;20618;-79
2022/09/19 07:52:36;;;;;;;6.78;0.60;;;12.80;99.90;;;;;;4950672;28;20030;-80
2022/09/19 07:55:02;;;;;;;5.85;0.45;;;12.80;99.90;;;;;;4962756;28;20049;-79
2022/09/19 07:57:30;;;;;;;4.57;0.30;;;12.80;99.90;;;;;;4950707;28;20042;-79
2022/09/19 07:59:56;;;;;;;7.75;0.40;;;12.90;99.90;;;;;;4951002;28;20194;-78
2022/09/19 08:02:23;;;;;;;6.95;0.35;;;13.00;99.90;;;;;;4934267;28;20054;-81
2022/09/19 08:04:50;;;;;;;5.68;0.40;;;13.10;99.90;;;;;;4950537;28;20105;-80
2022/09/19 08:07:17;;;;;;;10.30;0.50;;;13.20;99.90;;;;;;4949055;28;20130;-79
2022/09/19 08:09:43;;;;;;;4.60;0.47;;;13.20;99.90;;;;;;4958290;28;20225;-79
2022/09/19 08:12:17;;;;;;;6.60;0.68;;;13.20;99.90;;;;;;4960759;28;20030;-79
2022/09/19 08:14:47;;;;;;;7.13;0.40;;;13.20;99.90;;;;;;4959481;28;20034;-79
2022/09/19 08:17:14;;;;;;;8.65;0.60;;;13.20;99.90;;;;;;4977006;28;20118;-79
2022/09/19 08:19:41;;;;;;;9.20;0.65;;;13.30;99.90;;;;;;4969347;28;20073;-79
2022/09/19 08:22:07;;;;;;;8.98;0.40;;;13.40;99.90;;;;;;4986545;28;20034;-78
2022/09/19 08:24:39;;;;;;;10.23;0.50;;;13.60;99.90;;;;;;4984096;28;20026;-82
2022/09/19 08:27:13;;;;;;;5.30;0.50;;;13.70;99.90;;;;;;4977393;28;20037;-80
2022/09/19 08:29:39;;;;;;;6.50;0.40;;;14.00;99.90;;;;;;4969186;28;20030;-80
2022/09/19 08:32:09;;;;;;;7.32;0.40;;;14.10;99.90;;;;;;4977637;28;20096;-78
2022/09/19 08:34:35;;;;;;;6.25;0.50;;;14.20;99.90;;;;;;4983414;28;20605;-81
2022/09/19 08:37:02;;;;;;;6.00;0.57;;;14.40;99.90;;;;;;5015430;28;20042;-82
2022/09/19 08:39:31;;;;;;;6.30;0.40;;;14.30;99.90;;;;;;4980655;28;20030;-81
2022/09/19 08:42:27;;;;;;;7.43;0.40;;;14.50;99.90;;;;;;4983726;28;20038;-82
2022/09/19 08:45:03;;;;;;;7.93;0.50;;;14.50;99.90;;;;;;4965716;28;20050;-80
2022/09/19 08:47:32;;;;;;;8.85;0.70;;;14.70;99.90;;;;;;4983127;28;20045;-80
2022/09/19 08:50:22;;;;;;;9.05;0.30;;;14.80;99.90;;;;;;4982695;28;20165;-82
2022/09/19 08:52:52;;;;;;;6.57;0.50;;;14.80;99.90;;;;;;5015515;28;20034;-81
2022/09/19 08:55:25;;;;;;;6.32;0.55;;;14.80;99.90;;;;;;4980308;28;20646;-82
2022/09/19 08:57:59;;;;;;;9.52;0.40;;;14.90;99.90;;;;;;4968366;28;20074;-80
2022/09/19 09:00:39;;;;;;;7.70;0.63;;;14.90;99.90;;;;;;4981992;28;20160;-80
2022/09/19 09:03:12;;;;;;;5.20;0.38;;;15.00;99.90;;;;;;4998979;28;20064;-80
2022/09/19 09:05:56;;;;;;;3.72;0.30;;;15.20;99.90;;;;;;4983068;28;20108;-79
2022/09/19 09:08:35;;;;;;;7.32;0.30;;;15.10;99.90;;;;;;4982654;28;20120;-81
2022/09/19 09:11:16;;;;;;;8.60;0.75;;;15.20;99.90;;;;;;5011895;28;20041;-79
2022/09/19 09:13:55;;;;;;;6.63;0.30;;;15.30;99.90;;;;;;5006412;28;20040;-80
2022/09/19 09:16:34;;;;;;;3.97;0.50;;;15.30;99.90;;;;;;5038604;28;20281;-80
2022/09/19 09:19:03;;;;;;;3.28;0.20;;;15.30;99.90;;;;;;5007914;28;20039;-79
2022/09/19 09:21:56;;;;;;;4.45;0.30;;;15.40;99.90;;;;;;5038963;28;20036;-81
2022/09/19 09:24:36;;;;;;;5.80;0.40;;;15.50;99.90;;;;;;5022060;28;20053;-79
2022/09/19 09:27:36;;;;;;;5.80;0.40;;;15.70;99.90;;;;;;5007008;28;20057;-80
2022/09/19 09:30:16;;;;;;;5.07;0.25;;;15.80;99.90;;;;;;5004280;28;20033;-81
2022/09/19 09:32:54;;;;;;;4.80;0.30;;;16.40;99.90;;;;;;5005209;28;20477;-79
2022/09/19 09:35:47;;;;;;;5.43;0.30;;;16.40;99.90;;;;;;5022194;28;20022;-81
2022/09/19 09:38:25;;;;;;;8.02;0.40;;;16.20;99.90;;;;;;5004175;28;20099;-80
2022/09/19 09:44:12;;;;;;;2.70;0.10;;;15.50;99.90;;;;;;5015483;28;20065;-83
2022/09/19 09:46:49;;;;;;;1.27;0.10;;;14.30;99.90;;;;;;5038907;28;20104;-85
2022/09/19 09:49:21;;;;;;;0.57;0.00;;;13.00;99.90;;;;;;5006941;28;20107;-86
2022/09/19 09:51:53;;;;;;;1.48;0.00;;;12.80;99.90;;;;;;5002795;28;20025;-82
2022/09/19 09:57:55;;;;;;;2.20;0.00;;;12.70;99.90;;;;;;5005542;28;20042;-82
2022/09/19 10:03:34;;;;;;;0.77;0.00;;;12.80;99.90;;;;;;5005194;28;20041;-85
2022/09/19 10:06:18;;;;;;;1.30;0.00;;;12.70;99.90;;;;;;5038871;28;20288;-83
2022/09/19 10:09:00;;;;;;;0.95;0.08;;;12.90;99.90;;;;;;5004113;28;20051;-82
2022/09/19 10:11:45;;;;;;;1.42;0.00;;;13.20;99.90;;;;;;5003073;28;20081;-86
2022/09/19 10:14:23;;;;;;;3.20;0.15;;;13.30;99.90;;;;;;5003933;28;20063;-88
2022/09/19 10:16:53;;;;;;;1.92;0.10;;;13.30;99.90;;;;;;5003898;28;20470;-82
2022/09/19 10:20:02;;;;;;;1.27;0.13;;;13.40;99.90;;;;;;5006579;28;20025;-84
2022/09/19 10:22:29;;;;;;;1.67;0.10;;;13.60;99.90;;;;;;4952800;28;20019;-84
2022/09/19 10:25:09;;;;;;;1.58;0.20;;;13.80;99.90;;;;;;4984023;28;20061;-86
2022/09/19 10:27:39;;;;;;;2.58;0.20;;;13.70;99.90;;;;;;4967711;28;20034;-82
2022/09/19 10:30:27;;;;;;;1.83;0.17;;;13.70;99.90;;;;;;4985338;28;20058;-84
2022/09/19 10:32:57;;;;;;;2.40;0.20;;;13.70;99.90;;;;;;4968926;28;20026;-85
2022/09/19 10:35:38;;;;;;;4.97;0.50;;;13.70;99.90;;;;;;4983026;28;20046;-79
2022/09/19 10:38:13;;;;;;;2.33;0.17;;;13.90;99.90;;;;;;4985005;28;20043;-87
2022/09/19 10:40:55;;;;;;;4.70;0.20;;;14.30;99.90;;;;;;4985414;28;20034;-83
2022/09/19 10:43:33;;;;;;;2.08;0.15;;;14.50;99.90;;;;;;4968635;28;20132;-86
2022/09/19 10:46:09;;;;;;;2.80;0.20;;;14.50;99.90;;;;;;4968447;28;20076;-81
2022/09/19 10:48:50;;;;;;;2.28;0.20;;;14.60;99.90;;;;;;4970462;28;20087;-82
2022/09/19 10:51:16;;;;;;;2.35;0.45;;;15.00;99.90;;;;;;4989137;28;20022;-81
2022/09/19 10:53:52;;;;;;;5.20;0.35;;;15.10;99.90;;;;;;4989103;28;20022;-85
2022/09/19 10:56:27;;;;;;;1.65;0.10;;;15.40;99.90;;;;;;5022020;28;20183;-86
2022/09/19 10:59:05;;;;;;;2.88;0.15;;;15.30;99.90;;;;;;5009492;28;20386;-85
2022/09/19 11:01:38;;;;;;;6.65;0.30;;;15.30;99.90;;;;;;5044462;28;20099;-85
2022/09/19 11:04:26;;;;;;;4.53;0.25;;;15.10;99.90;;;;;;5022493;28;20049;-85
2022/09/19 11:07:03;;;;;;;11.05;0.45;;;15.10;99.90;;;;;;5007764;28;20462;-84
2022/09/19 11:09:35;;;;;;;1.95;0.17;;;14.70;99.90;;;;;;5008306;28;20720;-85
2022/09/19 11:12:09;;;;;;;0.40;0.00;;;14.50;99.90;;;;;;5009614;28;20063;-79
2022/09/19 11:14:40;;;;;;;2.25;0.17;;;14.50;99.90;;;;;;5041367;28;20826;-85
2022/09/19 11:17:31;;;;;;;1.88;0.10;;;14.50;99.90;;;;;;5008201;28;20038;-81
2022/09/19 11:20:27;;;;;;;1.73;0.10;;;14.40;99.90;;;;;;5009718;28;20026;-83
2022/09/19 11:23:35;;;;;;;1.50;0.10;;;14.40;99.90;;;;;;5008080;28;20124;-85
2022/09/19 11:26:29;;;;;;;1.48;0.10;;;14.30;99.90;;;;;;5006379;28;20337;-84
2022/09/19 11:29:12;;;;;;;2.28;0.10;;;14.40;99.90;;;;;;5022539;28;20025;-82
2022/09/19 11:32:03;;;;;;;1.48;0.10;;;14.40;99.90;;;;;;5000182;28;20685;-81
2022/09/19 11:34:29;;;;;;;2.08;0.10;;;14.70;99.90;;;;;;5039673;28;20091;-79
2022/09/19 11:37:30;;;;;;;0.73;0.10;;;15.10;99.90;;;;;;5006703;28;20044;-80
2022/09/19 11:40:33;;;;;;;1.80;0.10;;;15.30;99.90;;;;;;5005424;28;20374;-80
2022/09/19 11:43:37;;;;;;;1.63;0.10;;;15.80;99.90;;;;;;5007344;28;20033;-82
2022/09/19 11:46:40;;;;;;;1.52;0.10;;;16.00;99.90;;;;;;4970305;28;20066;-83
2022/09/19 11:49:15;;;;;;;0.85;0.00;;;16.30;99.90;;;;;;4986438;28;20070;-82
2022/09/19 11:51:56;;;;;;;1.83;0.10;;;16.40;99.90;;;;;;4987801;28;20034;-81
2022/09/19 11:55:15;;;;;;;0.82;0.10;;;16.50;99.90;;;;;;4969867;28;20023;-83
2022/09/19 11:58:14;;;;;;;1.52;0.10;;;16.50;99.90;;;;;;4957049;28;20050;-83
2022/09/19 12:01:02;;;;;;;1.60;0.10;;;16.60;99.90;;;;;;4966628;28;20149;-83
2022/09/19 12:03:52;;;;;;;1.92;0.10;;;16.60;99.90;;;;;;4973616;28;20057;-83
2022/09/19 12:06:43;;;;;;;2.17;0.30;;;16.60;99.90;;;;;;4986665;28;20026;-81
2022/09/19 12:09:25;;;;;;;1.67;0.10;;;16.50;99.90;;;;;;4970117;28;20132;-83
2022/09/19 12:12:11;;;;;;;3.75;0.20;;;16.30;99.90;;;;;;4986725;28;20137;-85
2022/09/19 12:15:00;;;;;;;2.30;0.10;;;16.40;99.90;;;;;;4967769;28;20026;-79
2022/09/19 12:17:33;;;;;;;2.42;0.10;;;16.00;99.90;;;;;;4972770;28;20130;-81
2022/09/19 12:20:23;;;;;;;2.42;0.10;;;15.80;99.90;;;;;;4970657;28;20034;-80
2022/09/19 12:24:52;;;;;;;3.50;0.10;;;15.90;99.90;;;;;;5005947;28;20045;-82
2022/09/19 12:25:49;;;;;;;2.47;0.10;;;15.90;99.90;;;;;;5021975;28;20486;-81
2022/09/19 12:28:18;;;;;;;3.28;0.20;;;15.90;99.90;;;;;;5005569;28;20023;-81
2022/09/19 12:30:49;;;;;;;3.83;0.13;;;16.10;99.90;;;;;;5008996;28;20025;-81
2022/09/19 12:33:48;;;;;;;1.98;0.10;;;16.50;99.90;;;;;;5006917;28;20465;-83
2022/09/19 12:36:23;;;;;;;2.80;0.10;;;16.40;99.90;;;;;;5020893;28;20043;-81
2022/09/19 12:39:17;;;;;;;2.97;0.10;;;16.20;99.90;;;;;;5018740;28;20037;-82
2022/09/19 12:41:57;;;;;;;1.85;0.10;;;16.50;99.90;;;;;;5021747;28;20033;-80
2022/09/19 12:44:28;;;;;;;1.30;0.10;;;16.70;99.90;;;;;;5004590;28;20036;-81
2022/09/19 12:47:27;;;;;;;1.90;0.10;;;16.70;99.90;;;;;;5006250;28;20517;-81
2022/09/19 12:50:19;;;;;;;2.65;0.20;;;16.80;99.90;;;;;;5006267;28;20022;-82
2022/09/19 12:53:22;;;;;;;0.68;0.00;;;16.50;99.90;;;;;;5022503;28;20032;-80
2022/09/19 12:56:19;;;;;;;1.67;0.10;;;16.30;99.90;;;;;;5004744;28;20037;-79
2022/09/19 12:59:06;;;;;;;2.15;0.20;;;16.10;99.90;;;;;;5023793;28;20091;-80
2022/09/19 13:01:49;;;;;;;0.77;0.10;;;16.40;99.90;;;;;;5018579;28;20539;-81
2022/09/19 13:04:25;;;;;;;2.50;0.10;;;16.50;99.90;;;;;;5004560;28;20080;-81
2022/09/19 13:06:54;;;;;;;0.57;0.05;;;16.50;99.90;;;;;;5021815;28;20033;-79
2022/09/19 13:09:27;;;;;;;1.83;0.10;;;16.50;99.90;;;;;;5003708;28;20025;-80
2022/09/19 13:12:00;;;;;;;2.22;0.10;;;16.80;99.90;;;;;;5021072;28;20046;-81
2022/09/19 13:14:40;;;;;;;2.20;0.10;;;17.00;99.90;;;;;;5023109;28;20716;-79
2022/09/19 13:25:35;;;;;;;1.77;0.10;;;16.70;99.90;;;;;;5020831;28;20087;-80
2022/09/19 13:28:34;;;;;;;2.33;0.10;;;16.70;99.90;;;;;;5038799;28;20469;-81
2022/09/19 13:31:05;;;;;;;0.93;0.10;;;16.50;99.90;;;;;;5023894;28;20029;-80
2022/09/19 13:33:47;;;;;;;2.33;0.10;;;16.40;99.90;;;;;;5003164;28;20025;-79
2022/09/19 13:36:39;;;;;;;3.03;0.13;;;16.30;99.90;;;;;;5020171;28;20030;-80
2022/09/19 13:39:42;;;;;;;1.17;0.10;;;16.60;99.90;;;;;;4999926;28;20084;-80
2022/09/19 13:42:12;;;;;;;2.05;0.10;;;16.30;99.90;;;;;;5021030;28;20107;-80
2022/09/19 13:44:47;;;;;;;2.00;0.08;;;16.20;99.90;;;;;;5003904;28;20042;-81
2022/09/19 13:47:25;;;;;;;0.47;0.10;;;16.20;99.90;;;;;;5038123;28;20038;-82
2022/09/19 13:50:22;;;;;;;1.13;0.00;;;16.20;99.90;;;;;;4983682;28;20030;-79
2022/09/19 13:53:00;;;;;;;0.55;0.00;;;16.10;99.90;;;;;;5021443;28;20021;-79
2022/09/19 13:55:32;;;;;;;2.10;0.10;;;16.00;99.90;;;;;;5000657;28;20037;-80
2022/09/19 13:58:30;;;;;;;1.08;0.10;;;16.00;99.90;;;;;;5004325;28;20151;-81
2022/09/19 14:01:34;;;;;;;1.60;0.00;;;16.10;99.90;;;;;;5020182;28;20028;-82
2022/09/19 14:04:52;;;;;;;0.88;0.00;;;16.10;99.90;;;;;;5008927;28;20129;-80